Time;durP1;ratioP1;P1;durP2;ratioP2;P2;SDS_P1;SDS_P2;PMS_P1;PMS_P2;Temp;Humidity;BMP_temperature;BMP_pressure;BME280_temperature;BME280_humidity;BME280_pressure;Samples;Min_cycle;Max_cycle;Signal;HPM_P1;HPM_P2
2024/02/03 00:02:02;;;;;;;25.73;11.65;;;;;;;;;;5009489;28;20088;-68
2024/02/03 00:04:30;;;;;;;21.38;11.40;;;;;;;;;;5010862;28;20030;-68
2024/02/03 00:06:56;;;;;;;16.40;8.60;;;;;;;;;;5006148;28;20049;-68
2024/02/03 00:09:22;;;;;;;27.70;12.35;;;;;;;;;;5007351;28;20025;-68
2024/02/03 00:11:47;;;;;;;15.70;7.78;;;;;;;;;;5007136;28;20540;-68
2024/02/03 00:14:12;;;;;;;21.63;9.00;;;;;;;;;;5005948;28;20033;-68
2024/02/03 00:16:37;;;;;;;23.80;11.97;;;;;;;;;;5005516;28;20371;-68
2024/02/03 00:19:02;;;;;;;22.93;10.67;;;;;;;;;;5005105;28;20368;-68
2024/02/03 00:21:27;;;;;;;15.87;6.27;;;;;;;;;;5010413;28;20281;-68
2024/02/03 00:23:53;;;;;;;23.53;11.23;;;;;;;;;;5007139;28;20730;-68
2024/02/03 00:26:18;;;;;;;27.67;10.65;;;;;;;;;;5008549;28;20279;-68
2024/02/03 00:28:43;;;;;;;23.70;11.57;;;;;;;;;;5006701;28;20028;-69
2024/02/03 00:31:09;;;;;;;31.20;12.35;;;;;;;;;;5004730;28;20076;-68
2024/02/03 00:33:34;;;;;;;24.27;11.32;;;;;;;;;;5004987;28;20041;-68
2024/02/03 00:35:59;;;;;;;24.73;13.52;;;;;;;;;;5008130;28;20677;-68
2024/02/03 00:38:24;;;;;;;25.73;13.02;;;;;;;;;;5005594;28;20021;-68
2024/02/03 00:40:50;;;;;;;29.17;11.50;;;;;;;;;;5005234;28;20025;-69
2024/02/03 00:43:16;;;;;;;24.75;13.23;;;;;;;;;;5001783;28;20117;-69
2024/02/03 00:45:42;;;;;;;19.88;10.02;;;;;;;;;;5004874;28;20496;-69
2024/02/03 00:48:07;;;;;;;15.30;5.72;;;;;;;;;;5009311;28;20026;-69
2024/02/03 00:50:32;;;;;;;22.52;11.20;;;;;;;;;;5006705;28;21487;-69
2024/02/03 00:52:57;;;;;;;22.40;10.83;;;;;;;;;;5005977;28;20038;-69
2024/02/03 00:55:23;;;;;;;25.20;10.17;;;;;;;;;;5000823;28;20260;-69
2024/02/03 00:57:48;;;;;;;23.80;11.57;;;;;;;;;;5004420;28;20261;-69
2024/02/03 01:00:13;;;;;;;20.40;9.23;;;;;;;;;;5003935;28;20289;-69
2024/02/03 01:02:41;;;;;;;16.17;8.02;;;;;;;;;;5004633;28;20288;-69
2024/02/03 01:05:06;;;;;;;19.27;8.30;;;;;;;;;;5005051;28;20461;-69
2024/02/03 01:07:31;;;;;;;20.05;9.30;;;;;;;;;;5007102;28;20022;-69
2024/02/03 01:09:56;;;;;;;13.83;7.50;;;;;;;;;;5005003;28;20404;-69
2024/02/03 01:12:21;;;;;;;21.80;10.90;;;;;;;;;;5001893;28;20273;-69
2024/02/03 01:14:47;;;;;;;24.95;10.25;;;;;;;;;;5008938;28;20384;-69
2024/02/03 01:17:12;;;;;;;18.75;8.15;;;;;;;;;;5000383;28;20088;-69
2024/02/03 01:19:37;;;;;;;13.98;5.47;;;;;;;;;;5002615;28;20029;-69
2024/02/03 01:22:02;;;;;;;21.37;9.93;;;;;;;;;;4999080;28;20026;-69
2024/02/03 01:24:27;;;;;;;21.45;10.38;;;;;;;;;;5004813;28;20748;-68
2024/02/03 01:26:53;;;;;;;15.63;8.00;;;;;;;;;;4999598;28;20028;-69
2024/02/03 01:29:18;;;;;;;17.83;9.30;;;;;;;;;;5008304;28;20893;-68
2024/02/03 01:31:43;;;;;;;15.43;7.47;;;;;;;;;;5005944;28;20481;-68
2024/02/03 01:34:08;;;;;;;10.07;6.32;;;;;;;;;;5003910;28;20268;-68
2024/02/03 01:36:33;;;;;;;24.67;10.60;;;;;;;;;;5004207;28;20042;-68
2024/02/03 01:38:59;;;;;;;22.70;9.27;;;;;;;;;;5000304;28;20262;-68
2024/02/03 01:41:24;;;;;;;22.50;10.20;;;;;;;;;;5005649;28;20339;-68
2024/02/03 01:43:49;;;;;;;13.10;6.43;;;;;;;;;;5003466;28;20501;-68
2024/02/03 01:46:16;;;;;;;10.53;3.97;;;;;;;;;;5002697;28;20022;-68
2024/02/03 01:48:41;;;;;;;20.15;9.77;;;;;;;;;;5009039;28;20268;-67
2024/02/03 01:51:08;;;;;;;14.93;6.40;;;;;;;;;;5003772;28;20018;-67
2024/02/03 01:53:33;;;;;;;17.10;8.23;;;;;;;;;;5001647;28;20105;-67
2024/02/03 01:55:59;;;;;;;18.30;9.10;;;;;;;;;;5003623;28;20101;-68
2024/02/03 01:58:24;;;;;;;11.40;6.82;;;;;;;;;;5005960;28;20412;-68
2024/02/03 02:00:49;;;;;;;15.73;7.55;;;;;;;;;;5005691;28;20034;-68
2024/02/03 02:03:15;;;;;;;20.33;10.20;;;;;;;;;;5000358;28;20029;-68
2024/02/03 02:05:40;;;;;;;22.75;10.52;;;;;;;;;;5001162;28;20042;-68
2024/02/03 02:08:05;;;;;;;24.95;8.48;;;;;;;;;;5006443;28;20018;-68
2024/02/03 02:10:31;;;;;;;13.13;6.35;;;;;;;;;;5005444;28;20025;-68
2024/02/03 02:12:56;;;;;;;14.30;7.20;;;;;;;;;;5002249;28;20029;-68
2024/02/03 02:15:21;;;;;;;15.52;8.27;;;;;;;;;;5001583;28;20336;-68
2024/02/03 02:17:46;;;;;;;11.65;4.80;;;;;;;;;;5005176;28;20034;-68
2024/02/03 02:20:12;;;;;;;9.33;4.53;;;;;;;;;;5002433;28;20037;-68
2024/02/03 02:22:37;;;;;;;19.85;5.88;;;;;;;;;;5001856;28;20358;-68
2024/02/03 02:25:03;;;;;;;17.08;7.13;;;;;;;;;;5004288;28;20018;-68
2024/02/03 02:27:28;;;;;;;20.60;8.30;;;;;;;;;;5004283;28;20029;-67
2024/02/03 02:29:53;;;;;;;16.52;8.07;;;;;;;;;;5002579;28;20092;-68
2024/02/03 02:32:19;;;;;;;17.58;8.10;;;;;;;;;;5006302;28;20420;-68
2024/02/03 02:34:44;;;;;;;11.87;6.13;;;;;;;;;;5005108;28;20504;-68
2024/02/03 02:37:09;;;;;;;17.37;6.97;;;;;;;;;;5008185;28;20332;-67
2024/02/03 02:39:34;;;;;;;17.57;7.43;;;;;;;;;;5010707;28;20276;-67
2024/02/03 02:42:00;;;;;;;17.38;9.13;;;;;;;;;;5012023;28;20284;-67
2024/02/03 02:44:25;;;;;;;18.13;8.68;;;;;;;;;;5011261;28;20042;-67
2024/02/03 02:46:50;;;;;;;13.80;4.88;;;;;;;;;;5008555;28;20500;-68
2024/02/03 02:49:15;;;;;;;16.30;6.73;;;;;;;;;;5008489;28;20034;-67
2024/02/03 02:51:40;;;;;;;8.83;4.80;;;;;;;;;;5009454;28;20256;-67
2024/02/03 02:54:06;;;;;;;10.23;5.07;;;;;;;;;;5009731;28;20820;-67
2024/02/03 02:56:31;;;;;;;17.43;8.43;;;;;;;;;;5003003;28;20265;-67
2024/02/03 02:58:56;;;;;;;14.53;6.70;;;;;;;;;;5006100;28;20284;-67
2024/02/03 03:01:22;;;;;;;13.23;6.97;;;;;;;;;;5007740;28;20263;-68
2024/02/03 03:03:47;;;;;;;13.05;6.68;;;;;;;;;;5009917;28;20508;-68
2024/02/03 03:06:13;;;;;;;15.93;7.63;;;;;;;;;;5007147;28;20033;-68
2024/02/03 03:08:38;;;;;;;18.23;7.20;;;;;;;;;;5004014;28;20340;-68
2024/02/03 03:11:03;;;;;;;11.77;5.32;;;;;;;;;;5006447;28;20021;-68
2024/02/03 03:13:28;;;;;;;15.30;7.67;;;;;;;;;;5010491;28;20037;-68
2024/02/03 03:15:54;;;;;;;9.30;4.43;;;;;;;;;;5007580;28;20975;-68
2024/02/03 03:18:19;;;;;;;11.68;6.38;;;;;;;;;;5005800;28;20265;-67
2024/02/03 03:20:44;;;;;;;15.17;7.83;;;;;;;;;;5004953;28;20014;-68
2024/02/03 03:23:09;;;;;;;16.60;6.07;;;;;;;;;;5009509;28;21029;-67
2024/02/03 03:25:38;;;;;;;13.38;6.78;;;;;;;;;;5005697;28;20500;-67
2024/02/03 03:28:06;;;;;;;13.23;6.25;;;;;;;;;;5008369;28;20018;-67
2024/02/03 03:30:31;;;;;;;17.75;6.57;;;;;;;;;;5007392;28;20129;-68
2024/02/03 03:32:56;;;;;;;9.27;4.80;;;;;;;;;;5007393;28;20161;-68
2024/02/03 03:35:21;;;;;;;12.47;6.60;;;;;;;;;;5010365;28;20755;-68
2024/02/03 03:37:47;;;;;;;8.13;4.75;;;;;;;;;;5007244;28;20258;-67
2024/02/03 03:40:12;;;;;;;9.25;5.28;;;;;;;;;;5000924;28;20041;-68
2024/02/03 03:42:37;;;;;;;8.73;4.60;;;;;;;;;;5009191;28;20029;-67
2024/02/03 03:45:02;;;;;;;13.57;5.37;;;;;;;;;;5004934;28;20018;-67
2024/02/03 03:47:28;;;;;;;12.48;6.55;;;;;;;;;;5008718;28;20265;-68
2024/02/03 03:49:53;;;;;;;9.30;4.95;;;;;;;;;;5005374;28;20040;-68
2024/02/03 03:52:18;;;;;;;11.83;4.80;;;;;;;;;;5006443;28;20018;-68
2024/02/03 03:54:43;;;;;;;7.38;4.28;;;;;;;;;;5008032;28;20740;-68
2024/02/03 03:57:08;;;;;;;6.75;3.40;;;;;;;;;;5004052;28;20025;-67
2024/02/03 03:59:34;;;;;;;6.97;3.60;;;;;;;;;;5008338;28;20053;-67
2024/02/03 04:01:59;;;;;;;8.63;3.67;;;;;;;;;;5002547;28;20288;-67
2024/02/03 04:04:24;;;;;;;9.73;5.38;;;;;;;;;;5003408;28;20036;-68
2024/02/03 04:06:49;;;;;;;5.80;2.93;;;;;;;;;;5010964;28;20495;-67
2024/02/03 04:09:15;;;;;;;10.60;5.23;;;;;;;;;;5006007;28;20250;-68
2024/02/03 04:11:40;;;;;;;5.88;3.10;;;;;;;;;;5007366;28;20319;-68
2024/02/03 04:14:06;;;;;;;6.97;3.28;;;;;;;;;;5008085;28;20124;-68
2024/02/03 04:16:31;;;;;;;5.95;3.25;;;;;;;;;;5007846;28;20087;-67
2024/02/03 04:18:57;;;;;;;10.05;4.43;;;;;;;;;;5005460;28;20049;-67
2024/02/03 04:21:22;;;;;;;9.02;4.25;;;;;;;;;;5006764;28;20015;-68
2024/02/03 04:23:47;;;;;;;8.63;4.60;;;;;;;;;;5007803;28;20026;-67
2024/02/03 04:26:12;;;;;;;11.97;4.43;;;;;;;;;;5006798;28;20257;-67
2024/02/03 04:28:37;;;;;;;6.80;4.03;;;;;;;;;;5004233;28;20253;-68
2024/02/03 04:31:03;;;;;;;8.37;3.93;;;;;;;;;;5005604;28;20025;-67
2024/02/03 04:33:28;;;;;;;10.57;4.82;;;;;;;;;;5002682;28;20482;-67
2024/02/03 04:35:53;;;;;;;11.65;3.85;;;;;;;;;;5006542;28;20109;-67
2024/02/03 04:38:19;;;;;;;10.65;5.65;;;;;;;;;;4998542;28;20441;-68
2024/02/03 04:40:44;;;;;;;11.57;5.40;;;;;;;;;;4997605;28;20025;-67
2024/02/03 04:43:09;;;;;;;10.50;5.90;;;;;;;;;;5002817;28;20281;-67
2024/02/03 04:45:34;;;;;;;11.63;5.27;;;;;;;;;;5006276;28;20524;-67
2024/02/03 04:47:59;;;;;;;11.97;6.60;;;;;;;;;;5000400;28;20265;-67
2024/02/03 04:50:25;;;;;;;9.70;4.83;;;;;;;;;;5006876;28;20338;-68
2024/02/03 04:52:50;;;;;;;11.85;5.95;;;;;;;;;;5003943;28;20361;-67
2024/02/03 04:55:17;;;;;;;13.65;5.82;;;;;;;;;;5008942;28;20030;-67
2024/02/03 04:57:42;;;;;;;10.13;4.60;;;;;;;;;;5006778;28;20025;-67
2024/02/03 05:00:08;;;;;;;11.40;6.37;;;;;;;;;;5005846;28;20025;-67
2024/02/03 05:02:33;;;;;;;6.82;3.55;;;;;;;;;;5006417;28;20375;-67
2024/02/03 05:04:58;;;;;;;15.23;5.10;;;;;;;;;;5003719;28;20117;-67
2024/02/03 05:07:24;;;;;;;6.47;3.07;;;;;;;;;;5004285;28;20721;-68
2024/02/03 05:09:49;;;;;;;15.10;3.93;;;;;;;;;;5006684;28;20277;-67
2024/02/03 05:12:14;;;;;;;11.50;5.50;;;;;;;;;;5004222;28;20265;-68
2024/02/03 05:14:39;;;;;;;11.70;6.43;;;;;;;;;;5006365;28;20276;-67
2024/02/03 05:17:05;;;;;;;10.60;5.43;;;;;;;;;;5003921;28;20033;-67
2024/02/03 05:19:30;;;;;;;12.15;5.07;;;;;;;;;;5001103;28;20288;-68
2024/02/03 05:21:55;;;;;;;12.93;5.47;;;;;;;;;;5008690;28;20026;-67
2024/02/03 05:24:22;;;;;;;6.32;3.05;;;;;;;;;;5006790;28;20465;-69
2024/02/03 05:26:47;;;;;;;15.50;6.38;;;;;;;;;;5002519;28;20341;-67
2024/02/03 05:29:12;;;;;;;13.50;6.55;;;;;;;;;;5008151;28;20492;-67
2024/02/03 05:31:38;;;;;;;14.17;5.33;;;;;;;;;;5006093;28;20026;-68
2024/02/03 05:34:03;;;;;;;10.38;5.72;;;;;;;;;;5007517;28;20391;-68
2024/02/03 05:36:28;;;;;;;16.85;6.60;;;;;;;;;;5004380;28;20417;-67
2024/02/03 05:38:53;;;;;;;11.77;6.10;;;;;;;;;;5005752;28;20033;-68
2024/02/03 05:41:18;;;;;;;12.20;5.73;;;;;;;;;;5002474;28;20257;-68
2024/02/03 05:43:44;;;;;;;9.77;4.97;;;;;;;;;;5008455;28;20808;-68
2024/02/03 05:46:09;;;;;;;13.37;5.40;;;;;;;;;;5009071;28;20284;-68
2024/02/03 05:48:34;;;;;;;13.32;5.72;;;;;;;;;;5005936;28;20256;-68
2024/02/03 05:50:59;;;;;;;9.67;4.10;;;;;;;;;;4999900;28;20030;-68
2024/02/03 05:53:24;;;;;;;10.07;4.30;;;;;;;;;;5008609;28;20269;-67
2024/02/03 05:55:49;;;;;;;10.77;5.93;;;;;;;;;;5007231;28;20265;-67
2024/02/03 05:58:15;;;;;;;11.20;5.37;;;;;;;;;;5003379;28;20105;-67
2024/02/03 06:00:40;;;;;;;16.75;8.65;;;;;;;;;;5005695;28;20280;-68
2024/02/03 06:03:05;;;;;;;16.17;7.30;;;;;;;;;;5006045;28;20396;-68
2024/02/03 06:05:31;;;;;;;12.20;6.60;;;;;;;;;;5004340;28;20273;-67
2024/02/03 06:07:56;;;;;;;16.50;7.00;;;;;;;;;;5009913;28;20268;-68
2024/02/03 06:10:21;;;;;;;12.20;6.03;;;;;;;;;;5010717;28;20744;-67
2024/02/03 06:12:46;;;;;;;9.50;5.87;;;;;;;;;;5008144;28;20109;-67
2024/02/03 06:15:11;;;;;;;11.43;5.50;;;;;;;;;;5004994;28;20281;-67
2024/02/03 06:17:37;;;;;;;7.20;3.55;;;;;;;;;;5003901;28;20257;-67
2024/02/03 06:20:02;;;;;;;9.73;5.23;;;;;;;;;;5005584;28;20034;-67
2024/02/03 06:22:27;;;;;;;7.88;3.65;;;;;;;;;;5009157;28;20285;-68
2024/02/03 06:24:52;;;;;;;5.67;3.00;;;;;;;;;;5009697;28;20469;-68
2024/02/03 06:27:17;;;;;;;10.00;4.70;;;;;;;;;;5007084;28;20253;-68
2024/02/03 06:29:43;;;;;;;9.83;5.30;;;;;;;;;;5011255;28;20273;-68
2024/02/03 06:32:08;;;;;;;13.80;5.43;;;;;;;;;;5006599;28;20276;-67
2024/02/03 06:34:33;;;;;;;11.85;5.57;;;;;;;;;;5010299;28;20022;-67
2024/02/03 06:36:58;;;;;;;12.95;4.90;;;;;;;;;;5009203;28;20113;-67
2024/02/03 06:39:24;;;;;;;7.72;4.45;;;;;;;;;;5007538;28;20041;-68
2024/02/03 06:41:49;;;;;;;15.50;6.07;;;;;;;;;;5004485;28;20018;-67
2024/02/03 06:44:14;;;;;;;10.07;5.10;;;;;;;;;;5006707;28;20260;-67
2024/02/03 06:46:39;;;;;;;12.10;6.53;;;;;;;;;;5009068;28;20028;-67
2024/02/03 06:49:05;;;;;;;12.32;6.13;;;;;;;;;;5000609;28;20017;-67
2024/02/03 06:51:30;;;;;;;10.77;5.23;;;;;;;;;;5004950;28;20036;-67
2024/02/03 06:53:55;;;;;;;9.50;4.40;;;;;;;;;;5005117;28;20280;-68
2024/02/03 06:56:20;;;;;;;12.13;4.60;;;;;;;;;;5003612;28;20269;-67
2024/02/03 06:58:46;;;;;;;13.20;6.00;;;;;;;;;;5003269;28;20249;-67
2024/02/03 07:01:11;;;;;;;14.25;7.20;;;;;;;;;;5004329;28;20046;-67
2024/02/03 07:03:36;;;;;;;8.60;4.60;;;;;;;;;;5002860;28;20030;-68
2024/02/03 07:06:02;;;;;;;14.60;7.10;;;;;;;;;;5004923;28;20261;-67
2024/02/03 07:08:27;;;;;;;21.30;7.18;;;;;;;;;;5001286;28;20761;-67
2024/02/03 07:10:52;;;;;;;11.63;5.43;;;;;;;;;;5002998;28;20102;-67
2024/02/03 07:13:17;;;;;;;17.97;8.43;;;;;;;;;;5003961;28;20032;-68
2024/02/03 07:15:43;;;;;;;9.52;4.25;;;;;;;;;;5003637;28;20268;-68
2024/02/03 07:18:08;;;;;;;14.85;7.28;;;;;;;;;;5009359;28;20021;-68
2024/02/03 07:20:34;;;;;;;13.47;6.17;;;;;;;;;;5003691;28;20037;-68
2024/02/03 07:22:59;;;;;;;22.67;7.60;;;;;;;;;;5005587;28;20432;-68
2024/02/03 07:25:24;;;;;;;13.32;6.72;;;;;;;;;;5007363;28;20755;-68
2024/02/03 07:27:49;;;;;;;19.83;8.07;;;;;;;;;;5004893;28;20034;-67
2024/02/03 07:30:14;;;;;;;15.00;6.70;;;;;;;;;;5009547;28;20332;-68
2024/02/03 07:32:39;;;;;;;16.83;7.75;;;;;;;;;;5009210;28;20272;-68
2024/02/03 07:35:06;;;;;;;17.23;8.33;;;;;;;;;;5005654;28;20034;-68
2024/02/03 07:37:31;;;;;;;14.18;7.32;;;;;;;;;;5004702;28;20649;-67
2024/02/03 07:39:56;;;;;;;21.98;8.15;;;;;;;;;;5003019;28;20099;-68
2024/02/03 07:42:22;;;;;;;12.07;6.32;;;;;;;;;;5003505;28;20049;-68
2024/02/03 07:44:47;;;;;;;15.77;7.47;;;;;;;;;;5002590;28;20018;-68
2024/02/03 07:47:12;;;;;;;12.20;6.50;;;;;;;;;;5008631;28;20355;-67
2024/02/03 07:49:37;;;;;;;13.20;6.47;;;;;;;;;;5005867;28;20257;-68
2024/02/03 07:52:03;;;;;;;15.05;7.65;;;;;;;;;;5004312;28;20030;-68
2024/02/03 07:54:28;;;;;;;13.00;7.10;;;;;;;;;;5003882;28;20397;-68
2024/02/03 07:56:53;;;;;;;14.05;7.30;;;;;;;;;;5001654;28;20022;-68
2024/02/03 07:59:19;;;;;;;11.60;5.63;;;;;;;;;;5004009;28;20030;-67
2024/02/03 08:01:44;;;;;;;14.18;6.70;;;;;;;;;;5003523;28;20652;-68
2024/02/03 08:04:09;;;;;;;15.50;7.20;;;;;;;;;;5004141;28;20369;-68
2024/02/03 08:06:34;;;;;;;13.00;4.67;;;;;;;;;;5006937;28;20268;-68
2024/02/03 08:09:00;;;;;;;15.57;7.53;;;;;;;;;;5002682;28;20374;-68
2024/02/03 08:11:25;;;;;;;18.55;9.85;;;;;;;;;;5004648;28;20284;-68
2024/02/03 08:13:50;;;;;;;13.30;6.80;;;;;;;;;;5002495;28;20038;-67
2024/02/03 08:16:15;;;;;;;17.13;7.77;;;;;;;;;;5001290;28;20256;-67
2024/02/03 08:18:40;;;;;;;20.13;7.20;;;;;;;;;;5006522;28;20903;-68
2024/02/03 08:21:06;;;;;;;15.00;8.13;;;;;;;;;;4998821;28;20555;-67
2024/02/03 08:23:31;;;;;;;18.02;7.20;;;;;;;;;;5002932;28;20034;-68
2024/02/03 08:25:57;;;;;;;17.38;7.20;;;;;;;;;;5002745;28;20041;-67
2024/02/03 08:28:22;;;;;;;16.13;6.78;;;;;;;;;;5003752;28;20018;-68
2024/02/03 08:30:47;;;;;;;13.55;7.10;;;;;;;;;;5001428;28;20061;-67
2024/02/03 08:33:12;;;;;;;15.97;9.13;;;;;;;;;;5006119;28;20030;-67
2024/02/03 08:35:37;;;;;;;25.33;9.23;;;;;;;;;;5008359;28;20257;-68
2024/02/03 08:38:03;;;;;;;21.20;8.97;;;;;;;;;;5007035;28;20744;-67
2024/02/03 08:40:28;;;;;;;23.27;11.23;;;;;;;;;;5008139;28;20605;-68
2024/02/03 08:42:54;;;;;;;20.17;10.73;;;;;;;;;;5006290;28;20054;-67
2024/02/03 08:45:19;;;;;;;17.20;7.65;;;;;;;;;;5007294;28;20489;-68
2024/02/03 08:47:44;;;;;;;19.13;9.90;;;;;;;;;;5007593;28;20018;-67
2024/02/03 08:50:09;;;;;;;24.30;11.05;;;;;;;;;;5008140;28;20668;-68
2024/02/03 08:52:35;;;;;;;20.48;11.25;;;;;;;;;;4999905;28;20080;-67
2024/02/03 08:55:00;;;;;;;19.92;11.02;;;;;;;;;;5004777;28;20033;-67
2024/02/03 08:57:26;;;;;;;27.63;11.65;;;;;;;;;;5009818;28;20083;-67
2024/02/03 08:59:51;;;;;;;25.42;12.25;;;;;;;;;;5007823;28;20072;-67
2024/02/03 09:02:16;;;;;;;22.42;11.55;;;;;;;;;;5007949;28;20473;-67
2024/02/03 09:04:42;;;;;;;19.88;10.07;;;;;;;;;;5009232;28;20212;-68
2024/02/03 09:07:07;;;;;;;27.33;13.13;;;;;;;;;;5004593;28;20036;-67
2024/02/03 09:09:32;;;;;;;22.55;11.23;;;;;;;;;;5008798;28;20335;-67
2024/02/03 09:11:57;;;;;;;21.55;10.77;;;;;;;;;;5006618;28;20387;-67
2024/02/03 09:14:22;;;;;;;31.77;13.17;;;;;;;;;;5009349;28;20473;-67
2024/02/03 09:16:48;;;;;;;22.70;11.10;;;;;;;;;;5008304;28;20670;-67
2024/02/03 09:19:13;;;;;;;27.57;12.77;;;;;;;;;;5000411;28;20257;-67
2024/02/03 09:21:38;;;;;;;18.57;9.40;;;;;;;;;;5007965;28;20265;-67
2024/02/03 09:24:03;;;;;;;23.85;13.18;;;;;;;;;;5008983;28;20355;-67
2024/02/03 09:26:28;;;;;;;28.05;12.57;;;;;;;;;;5004466;28;20068;-67
2024/02/03 09:28:55;;;;;;;24.40;12.97;;;;;;;;;;5003097;28;20369;-67
2024/02/03 09:31:21;;;;;;;22.77;11.55;;;;;;;;;;5000986;28;20258;-68
2024/02/03 09:33:46;;;;;;;24.58;12.00;;;;;;;;;;5002994;28;20029;-68
2024/02/03 09:36:12;;;;;;;27.88;8.70;;;;;;;;;;5000734;28;20025;-68
2024/02/03 09:38:37;;;;;;;25.50;14.02;;;;;;;;;;5001532;28;20189;-67
2024/02/03 09:41:03;;;;;;;27.45;14.63;;;;;;;;;;4998988;28;20543;-68
2024/02/03 09:43:28;;;;;;;26.02;12.43;;;;;;;;;;5001974;28;20491;-67
2024/02/03 09:45:53;;;;;;;29.48;14.35;;;;;;;;;;5004009;28;20088;-68
2024/02/03 09:48:19;;;;;;;27.80;14.43;;;;;;;;;;4999582;28;20076;-68
2024/02/03 09:50:44;;;;;;;28.30;12.97;;;;;;;;;;5004229;28;20022;-67
2024/02/03 09:53:10;;;;;;;25.92;12.50;;;;;;;;;;5001956;28;20374;-67
2024/02/03 09:55:35;;;;;;;28.40;13.25;;;;;;;;;;5005969;28;20076;-67
2024/02/03 09:58:02;;;;;;;31.85;14.35;;;;;;;;;;5000664;28;20041;-67
2024/02/03 10:00:27;;;;;;;25.73;13.10;;;;;;;;;;5002286;28;20041;-67
2024/02/03 10:02:52;;;;;;;24.05;12.95;;;;;;;;;;5003897;28;20026;-68
2024/02/03 10:05:27;;;;;;;25.87;13.40;;;;;;;;;;5003775;28;20393;-68
2024/02/03 10:08:02;;;;;;;21.85;10.10;;;;;;;;;;5001079;28;20278;-68
2024/02/03 10:10:28;;;;;;;28.20;16.73;;;;;;;;;;5008136;28;20553;-68
2024/02/03 10:13:07;;;;;;;27.92;11.40;;;;;;;;;;5005342;28;20100;-68
2024/02/03 10:15:32;;;;;;;34.88;17.48;;;;;;;;;;5004718;28;20025;-68
2024/02/03 10:18:00;;;;;;;29.73;15.33;;;;;;;;;;5006674;28;20512;-68
2024/02/03 10:20:26;;;;;;;11.95;6.03;;;;;;;;;;5006812;28;20617;-68
2024/02/03 10:22:51;;;;;;;37.90;14.48;;;;;;;;;;5007812;28;20141;-68
2024/02/03 10:25:21;;;;;;;18.73;9.30;;;;;;;;;;5006309;28;20116;-68
2024/02/03 10:27:46;;;;;;;27.83;13.75;;;;;;;;;;5008513;28;20049;-68
2024/02/03 10:30:17;;;;;;;32.05;16.20;;;;;;;;;;5006082;28;20053;-68
2024/02/03 10:32:42;;;;;;;32.95;17.23;;;;;;;;;;5006930;28;20104;-68
2024/02/03 10:35:08;;;;;;;34.67;17.00;;;;;;;;;;5003450;28;20572;-69
2024/02/03 10:37:33;;;;;;;37.53;15.40;;;;;;;;;;5003279;28;20034;-68
2024/02/03 10:39:59;;;;;;;29.02;17.10;;;;;;;;;;5004895;28;20037;-68
2024/02/03 10:42:25;;;;;;;32.22;14.95;;;;;;;;;;5007586;28;20026;-67
2024/02/03 10:44:52;;;;;;;28.02;12.98;;;;;;;;;;5009013;28;20026;-68
2024/02/03 10:47:21;;;;;;;13.65;6.57;;;;;;;;;;5006559;28;20029;-69
2024/02/03 10:49:47;;;;;;;25.52;13.68;;;;;;;;;;5006339;28;20092;-68
2024/02/03 10:52:13;;;;;;;30.65;11.50;;;;;;;;;;5003411;28;20037;-68
2024/02/03 10:54:38;;;;;;;23.88;12.70;;;;;;;;;;5008010;28;20020;-68
2024/02/03 10:57:04;;;;;;;21.77;11.20;;;;;;;;;;5007939;28;20030;-69
2024/02/03 10:59:29;;;;;;;25.58;13.77;;;;;;;;;;5008008;28;20073;-68
2024/02/03 11:01:55;;;;;;;14.73;7.38;;;;;;;;;;5011584;28;20025;-68
2024/02/03 11:04:20;;;;;;;23.83;11.68;;;;;;;;;;5007799;28;20018;-68
2024/02/03 11:06:48;;;;;;;33.13;16.77;;;;;;;;;;5009261;28;20025;-68
2024/02/03 11:09:29;;;;;;;24.38;11.38;;;;;;;;;;5010347;28;20021;-68
2024/02/03 11:11:55;;;;;;;21.88;9.52;;;;;;;;;;5011000;28;20492;-68
2024/02/03 11:14:21;;;;;;;31.85;14.07;;;;;;;;;;5008444;28;20445;-68
2024/02/03 11:16:59;;;;;;;27.63;13.13;;;;;;;;;;5010279;28;20013;-67
2024/02/03 11:19:25;;;;;;;26.25;13.70;;;;;;;;;;5010044;28;20448;-68
2024/02/03 11:21:54;;;;;;;29.55;14.27;;;;;;;;;;5010974;28;20032;-68
2024/02/03 11:24:19;;;;;;;30.00;14.02;;;;;;;;;;5007548;28;20162;-68
2024/02/03 11:26:53;;;;;;;25.88;13.68;;;;;;;;;;5011543;28;20112;-69
2024/02/03 11:29:18;;;;;;;20.67;10.77;;;;;;;;;;5008849;28;20026;-68
2024/02/03 11:31:43;;;;;;;30.97;13.63;;;;;;;;;;5009105;28;20370;-68
2024/02/03 11:34:13;;;;;;;30.30;15.47;;;;;;;;;;5007488;28;20336;-69
2024/02/03 11:36:38;;;;;;;28.48;13.20;;;;;;;;;;5000957;28;20260;-68
2024/02/03 11:39:03;;;;;;;23.87;12.73;;;;;;;;;;5005295;28;20026;-68
2024/02/03 11:41:28;;;;;;;17.50;8.68;;;;;;;;;;5007643;28;20724;-67
2024/02/03 11:43:54;;;;;;;22.83;10.95;;;;;;;;;;5006535;28;20017;-67
2024/02/03 11:46:19;;;;;;;21.70;12.10;;;;;;;;;;5008505;28;20013;-66
2024/02/03 11:48:45;;;;;;;24.17;11.88;;;;;;;;;;5010115;28;20033;-67
2024/02/03 11:51:11;;;;;;;27.63;11.90;;;;;;;;;;5006754;28;20025;-66
2024/02/03 11:53:36;;;;;;;24.88;12.60;;;;;;;;;;5008804;28;20038;-68
2024/02/03 11:56:01;;;;;;;29.60;13.80;;;;;;;;;;5008724;28;20026;-68
2024/02/03 11:58:27;;;;;;;25.00;11.98;;;;;;;;;;5008208;28;20073;-68
2024/02/03 12:01:08;;;;;;;20.48;11.88;;;;;;;;;;5009927;28;20104;-68
2024/02/03 12:03:35;;;;;;;32.65;12.95;;;;;;;;;;5007226;28;20045;-68
2024/02/03 12:06:01;;;;;;;26.17;14.73;;;;;;;;;;5006966;28;20056;-68
2024/02/03 12:08:26;;;;;;;29.73;13.27;;;;;;;;;;5007502;28;20621;-68
2024/02/03 12:10:51;;;;;;;17.40;8.10;;;;;;;;;;5010161;28;20030;-68
2024/02/03 12:13:16;;;;;;;18.52;8.55;;;;;;;;;;5007197;28;20026;-67
2024/02/03 12:15:42;;;;;;;20.80;11.18;;;;;;;;;;5009186;28;20054;-67
2024/02/03 12:18:08;;;;;;;27.42;10.90;;;;;;;;;;5007335;28;20041;-68
2024/02/03 12:20:33;;;;;;;25.23;11.65;;;;;;;;;;5007501;28;20018;-68
2024/02/03 12:22:59;;;;;;;19.65;10.30;;;;;;;;;;5007550;28;20080;-68
2024/02/03 12:25:25;;;;;;;17.10;9.63;;;;;;;;;;5006769;28;20022;-67
2024/02/03 12:27:50;;;;;;;22.38;10.45;;;;;;;;;;5010171;28;20028;-68
2024/02/03 12:30:19;;;;;;;30.50;10.17;;;;;;;;;;5007319;28;20022;-67
2024/02/03 12:32:45;;;;;;;18.85;8.98;;;;;;;;;;5009650;28;20331;-68
2024/02/03 12:35:11;;;;;;;11.70;6.20;;;;;;;;;;5009141;28;20060;-67
2024/02/03 12:37:36;;;;;;;18.38;8.00;;;;;;;;;;5008166;28;20049;-67
2024/02/03 12:40:01;;;;;;;20.77;11.25;;;;;;;;;;5003504;28;20105;-68
2024/02/03 12:42:26;;;;;;;18.17;8.75;;;;;;;;;;5009858;28;20465;-67
2024/02/03 12:44:51;;;;;;;16.77;8.77;;;;;;;;;;5008194;28;20452;-68
2024/02/03 12:47:17;;;;;;;18.75;8.73;;;;;;;;;;5008646;28;20425;-67
2024/02/03 12:49:42;;;;;;;11.33;7.07;;;;;;;;;;5008974;28;20013;-67
2024/02/03 12:52:07;;;;;;;18.33;8.37;;;;;;;;;;5009823;28;20279;-67
2024/02/03 12:54:32;;;;;;;16.90;8.30;;;;;;;;;;5008622;28;20257;-68
2024/02/03 12:56:57;;;;;;;19.67;8.88;;;;;;;;;;5002263;28;20056;-68
2024/02/03 12:59:23;;;;;;;19.15;9.95;;;;;;;;;;5008116;28;20061;-67
2024/02/03 13:01:48;;;;;;;15.67;9.03;;;;;;;;;;5009120;28;20026;-67
2024/02/03 13:04:13;;;;;;;13.90;7.15;;;;;;;;;;5007650;28;20256;-67
2024/02/03 13:06:38;;;;;;;18.73;9.35;;;;;;;;;;5007872;28;20095;-67
2024/02/03 13:09:04;;;;;;;19.58;8.23;;;;;;;;;;5008208;28;20102;-69
2024/02/03 13:11:29;;;;;;;19.35;8.95;;;;;;;;;;5007317;28;20019;-69
2024/02/03 13:13:54;;;;;;;22.20;9.23;;;;;;;;;;5008247;28;20018;-69
2024/02/03 13:16:20;;;;;;;18.45;9.57;;;;;;;;;;5006624;28;20664;-70
2024/02/03 13:18:45;;;;;;;18.58;9.20;;;;;;;;;;5001296;28;20037;-70
2024/02/03 13:21:10;;;;;;;19.42;8.40;;;;;;;;;;5005668;28;20032;-70
2024/02/03 13:23:35;;;;;;;24.73;9.60;;;;;;;;;;5005516;28;20030;-70
2024/02/03 13:26:01;;;;;;;22.40;10.47;;;;;;;;;;5006755;28;20256;-68
2024/02/03 13:28:26;;;;;;;21.67;8.75;;;;;;;;;;5006763;28;20807;-68
2024/02/03 13:30:52;;;;;;;17.88;9.15;;;;;;;;;;5007406;28;20433;-69
2024/02/03 13:33:17;;;;;;;22.50;9.90;;;;;;;;;;5007481;28;20057;-68
2024/02/03 13:35:42;;;;;;;22.17;9.63;;;;;;;;;;5006601;28;20042;-69
2024/02/03 13:38:08;;;;;;;22.70;10.23;;;;;;;;;;5006559;28;20064;-69
2024/02/03 13:40:33;;;;;;;21.60;10.43;;;;;;;;;;5009340;28;20365;-69
2024/02/03 13:42:58;;;;;;;25.67;10.10;;;;;;;;;;5008514;28;20033;-69
2024/02/03 13:45:23;;;;;;;18.38;9.85;;;;;;;;;;5006300;28;20346;-69
2024/02/03 13:47:51;;;;;;;23.75;11.40;;;;;;;;;;5008716;28;20026;-68
2024/02/03 13:50:17;;;;;;;20.83;10.77;;;;;;;;;;5008006;28;20539;-69
2024/02/03 13:52:43;;;;;;;19.98;9.63;;;;;;;;;;5007701;28;20026;-69
2024/02/03 13:55:08;;;;;;;19.33;9.23;;;;;;;;;;5005731;28;20018;-69
2024/02/03 13:57:33;;;;;;;24.10;10.00;;;;;;;;;;5005186;28;20022;-68
2024/02/03 13:59:58;;;;;;;23.42;10.50;;;;;;;;;;5006189;28;21561;-68
2024/02/03 14:02:23;;;;;;;23.40;11.35;;;;;;;;;;5004335;28;20030;-69
2024/02/03 14:04:49;;;;;;;24.23;11.50;;;;;;;;;;5006855;28;20026;-69
2024/02/03 14:07:14;;;;;;;24.92;12.23;;;;;;;;;;5008021;28;20628;-69
2024/02/03 14:09:40;;;;;;;33.55;15.13;;;;;;;;;;5007454;28;20014;-69
2024/02/03 14:12:06;;;;;;;31.80;15.90;;;;;;;;;;5007850;28;20432;-69
2024/02/03 14:14:31;;;;;;;29.35;14.52;;;;;;;;;;5004756;28;20273;-70
2024/02/03 14:16:57;;;;;;;31.55;17.15;;;;;;;;;;5006703;28;20037;-69